createdAt,value
2016-12-12T00:49:38.744Z,0
2016-12-12T01:05:25.413Z,0
2016-12-12T01:49:37.526Z,0
2016-12-12T01:50:31.307Z,0
2016-12-12T01:52:17.410Z,0
2016-12-12T01:53:41.567Z,0
2016-12-12T01:55:04.716Z,0
2016-12-12T02:50:32.106Z,0
2016-12-12T02:51:25.609Z,0
2016-12-12T02:52:19.167Z,0
2016-12-12T02:53:12.384Z,0
2016-12-12T02:54:06.393Z,0
2016-12-12T02:58:08.205Z,0
2016-12-12T02:59:01.359Z,0
2016-12-12T03:00:48.404Z,0
2016-12-12T03:01:41.821Z,0
2016-12-12T03:04:17.740Z,0
2016-12-12T03:06:56.781Z,0
2016-12-12T03:07:50.273Z,0
2016-12-12T03:08:43.905Z,0
2016-12-12T03:10:08.300Z,0
2016-12-12T03:11:01.698Z,0
2016-12-12T03:11:53.133Z,0
2016-12-12T03:48:26.033Z,0
2016-12-12T03:49:19.507Z,0
2016-12-12T03:51:06.332Z,0
2016-12-12T03:52:00.489Z,0
2016-12-12T03:52:53.494Z,0
2016-12-12T03:53:47.030Z,0
2016-12-12T03:54:40.571Z,0
2016-12-12T03:55:33.959Z,0
2016-12-12T03:56:27.954Z,0
2016-12-12T03:57:21.388Z,0
2016-12-12T03:58:14.851Z,0
2016-12-12T03:59:08.451Z,0
2016-12-12T04:00:01.653Z,0
2016-12-12T04:00:55.135Z,0
2016-12-12T04:01:48.459Z,0
2016-12-12T04:02:42.399Z,0
2016-12-12T04:04:07.257Z,0
2016-12-12T04:05:01.072Z,0
2016-12-12T04:07:48.419Z,0
2016-12-12T04:08:42.010Z,0
2016-12-12T04:09:35.434Z,0
2016-12-12T04:10:29.066Z,0
2016-12-12T04:11:50.754Z,0
2016-12-12T04:48:47.253Z,0
2016-12-12T04:49:41.170Z,0
2016-12-12T04:50:32.491Z,0
2016-12-12T05:49:13.341Z,0
2016-12-12T05:50:06.928Z,0
2016-12-12T05:51:53.855Z,0
2016-12-12T05:52:47.147Z,0
2016-12-12T05:53:40.903Z,0
2016-12-12T05:54:34.368Z,0
2016-12-12T05:56:21.621Z,0
2016-12-12T05:57:14.836Z,0
2016-12-12T05:58:08.749Z,0
2016-12-12T05:59:01.963Z,0
2016-12-12T05:59:55.352Z,0
2016-12-12T06:01:20.736Z,0
2016-12-12T06:02:14.226Z,0
2016-12-12T06:03:07.925Z,0
2016-12-12T06:04:01.029Z,0
2016-12-12T06:05:48.566Z,0
2016-12-12T06:07:01.683Z,0
2016-12-12T06:07:55.502Z,0
2016-12-12T06:08:48.961Z,0
2016-12-12T06:10:45.012Z,0
2016-12-12T06:11:38.095Z,0
2016-12-12T06:12:31.927Z,0
2016-12-12T06:13:25.483Z,0
2016-12-12T06:14:18.913Z,0
2016-12-12T06:15:12.388Z,0
2016-12-12T06:16:05.856Z,0
2016-12-12T06:16:59.373Z,0
2016-12-12T06:17:52.795Z,0
2016-12-12T06:48:34.138Z,4
2016-12-12T07:49:46.939Z,684
2016-12-12T07:50:40.421Z,708
2016-12-12T07:51:33.980Z,740
2016-12-12T07:52:27.560Z,768
2016-12-12T07:53:20.400Z,796
2016-12-12T07:54:14.473Z,792
2016-12-12T07:55:07.970Z,764
2016-12-12T07:56:01.420Z,740
2016-12-12T07:57:48.324Z,704
2016-12-12T07:58:42.232Z,704
2016-12-12T07:59:34.964Z,728
2016-12-12T08:01:54.435Z,684
2016-12-12T08:02:47.756Z,668
2016-12-12T08:03:41.314Z,700
2016-12-12T08:04:34.995Z,868
2016-12-12T08:05:28.602Z,968
2016-12-12T08:07:15.603Z,896
2016-12-12T08:08:08.778Z,940
2016-12-12T08:09:02.325Z,952
2016-12-12T08:10:47.466Z,788
2016-12-12T08:11:40.966Z,704
2016-12-12T08:12:33.755Z,676
2016-12-12T08:13:27.517Z,704
2016-12-12T08:14:20.711Z,724
2016-12-12T08:15:14.433Z,708
2016-12-12T08:16:07.787Z,700
2016-12-12T08:17:01.414Z,744
2016-12-12T08:51:36.755Z,764
2016-12-12T08:52:30.803Z,824
2016-12-12T08:55:11.687Z,1032
2016-12-12T08:56:05.153Z,984
2016-12-12T08:56:58.265Z,936
2016-12-12T08:57:51.872Z,848
2016-12-12T08:58:45.383Z,820
2016-12-12T08:59:38.618Z,880
2016-12-12T09:00:32.337Z,992
2016-12-12T09:02:28.162Z,1356
2016-12-12T09:03:21.777Z,1552
2016-12-12T09:04:14.656Z,1580
2016-12-12T09:05:08.304Z,1496
2016-12-12T09:06:01.688Z,1392
2016-12-12T09:06:55.386Z,1252
2016-12-12T09:07:49.082Z,1148
2016-12-12T09:08:42.473Z,1120
2016-12-12T09:09:35.793Z,1168
2016-12-12T09:10:29.309Z,1152
2016-12-12T09:12:14.791Z,992
2016-12-12T09:13:08.268Z,928
2016-12-12T09:14:01.712Z,936
2016-12-12T09:14:55.241Z,952
2016-12-12T09:15:48.483Z,944
2016-12-12T09:16:42.271Z,920
2016-12-12T09:17:35.448Z,888
2016-12-12T09:18:59.941Z,900
2016-12-12T09:19:53.743Z,856
2016-12-12T09:53:10.832Z,1440
2016-12-12T09:54:04.394Z,1432
2016-12-12T09:54:57.663Z,1556
2016-12-12T09:55:51.160Z,1740
2016-12-12T10:51:25.993Z,2936
2016-12-12T10:52:39.953Z,2684
2016-12-12T10:53:31.248Z,2636
2016-12-12T11:51:26.436Z,2284
2016-12-12T11:53:12.183Z,2104
2016-12-12T11:54:05.731Z,2028
2016-12-12T11:54:59.706Z,2032
2016-12-12T11:55:52.759Z,2076
2016-12-12T11:56:46.211Z,2100
2016-12-12T11:57:40.137Z,2140
2016-12-12T11:58:33.452Z,2056
2016-12-12T11:59:27.103Z,1968
2016-12-12T12:52:27.555Z,2096
2016-12-12T12:53:21.202Z,2092
2016-12-12T12:54:14.902Z,2160
2016-12-12T13:51:18.036Z,2036
2016-12-12T13:52:41.252Z,2048
2016-12-12T13:54:26.522Z,2060
2016-12-12T13:55:20.154Z,2040
2016-12-12T14:50:18.239Z,688
2016-12-12T14:51:11.710Z,616
2016-12-12T14:52:05.228Z,540
2016-12-12T14:52:58.500Z,472
2016-12-12T14:53:52.336Z,424
2016-12-12T14:54:45.779Z,404
2016-12-12T14:55:38.959Z,404
2016-12-12T14:56:32.802Z,412
2016-12-12T14:59:44.961Z,376
2016-12-12T15:00:38.422Z,344
2016-12-12T15:01:31.888Z,320
2016-12-12T15:02:25.390Z,296
2016-12-12T15:03:18.508Z,288
2016-12-12T15:04:42.252Z,284
2016-12-12T15:06:29.150Z,256
2016-12-12T15:08:16.211Z,232
2016-12-12T15:09:09.525Z,220
2016-12-12T15:10:02.886Z,208
2016-12-12T15:10:56.483Z,196
2016-12-12T15:11:50.194Z,188
2016-12-12T15:12:43.492Z,180
2016-12-12T15:13:36.850Z,168
2016-12-12T15:14:30.347Z,164
2016-12-12T15:16:17.620Z,148
2016-12-12T15:17:11.328Z,136
2016-12-12T16:51:41.296Z,0
2016-12-12T16:52:35.208Z,0
2016-12-12T16:53:28.276Z,0
2016-12-12T16:54:22.030Z,0
2016-12-12T16:55:15.260Z,0
2016-12-12T16:56:09.271Z,0
2016-12-12T16:57:02.256Z,0
2016-12-12T16:57:56.155Z,0
2016-12-12T16:58:49.317Z,0
2016-12-12T16:59:44.541Z,0
2016-12-12T17:00:56.683Z,0
2016-12-12T17:02:10.276Z,0
2016-12-12T17:03:03.777Z,0
2016-12-12T17:03:57.724Z,0
2016-12-12T17:04:51.242Z,0
2016-12-12T17:05:44.630Z,0
2016-12-12T17:06:37.540Z,0
2016-12-12T17:07:31.292Z,0
2016-12-12T17:08:24.520Z,0
2016-12-12T17:11:04.909Z,0
2016-12-12T17:12:30.191Z,0
2016-12-12T17:13:24.109Z,0
2016-12-12T17:16:04.475Z,0
2016-12-12T17:16:58.117Z,0
2016-12-12T17:17:51.640Z,0
2016-12-12T17:18:45.201Z,0
2016-12-12T17:19:38.229Z,0
2016-12-12T17:50:36.553Z,0
2016-12-12T17:51:29.985Z,0
2016-12-12T17:52:23.778Z,0
2016-12-12T17:53:16.932Z,0
2016-12-12T17:54:10.682Z,0
2016-12-12T17:55:03.940Z,0
2016-12-12T17:56:50.879Z,0
2016-12-12T17:57:44.763Z,0
2016-12-12T17:58:38.225Z,0
2016-12-12T17:59:31.419Z,0
2016-12-12T18:00:25.314Z,0
2016-12-12T18:01:18.644Z,0
2016-12-12T18:02:12.264Z,0
2016-12-12T18:03:05.748Z,0
2016-12-12T18:03:59.570Z,0
2016-12-12T18:04:52.520Z,0
2016-12-12T18:05:46.644Z,0
2016-12-12T18:06:39.830Z,0
2016-12-12T18:07:33.313Z,0
2016-12-12T18:08:26.832Z,0
2016-12-12T18:09:20.163Z,0
2016-12-12T18:10:13.821Z,0
2016-12-12T18:11:07.735Z,0
2016-12-12T18:12:00.751Z,0
2016-12-12T18:12:54.062Z,0
2016-12-12T18:14:19.980Z,0
2016-12-12T18:16:06.538Z,0
2016-12-12T18:17:00.304Z,0
2016-12-12T19:53:30.221Z,0
2016-12-12T19:54:23.677Z,0
2016-12-12T19:55:17.282Z,0
2016-12-12T19:56:11.067Z,0
2016-12-12T19:58:37.050Z,0
2016-12-12T19:59:31.093Z,0
2016-12-12T20:50:54.826Z,0
2016-12-12T20:51:48.542Z,0
2016-12-12T20:52:41.688Z,0
2016-12-12T20:53:35.896Z,0
2016-12-12T20:54:29.578Z,0
2016-12-12T20:55:23.079Z,0
2016-12-12T20:56:17.064Z,0
2016-12-12T20:57:10.403Z,0
2016-12-12T20:58:55.379Z,0
2016-12-12T20:59:48.712Z,0
2016-12-12T21:50:23.890Z,0
2016-12-12T21:51:17.062Z,0
2016-12-12T21:52:10.893Z,0
2016-12-12T21:53:04.382Z,0
2016-12-12T21:53:57.857Z,0
2016-12-12T21:54:51.349Z,0
2016-12-12T21:55:44.909Z,0
2016-12-12T21:56:38.594Z,0
2016-12-12T21:57:31.857Z,0
2016-12-12T21:58:57.037Z,0
2016-12-12T21:59:50.631Z,0
2016-12-12T22:00:44.692Z,0
2016-12-12T22:01:37.733Z,0
2016-12-12T22:02:31.284Z,0
2016-12-12T22:03:24.887Z,0
2016-12-12T22:04:18.034Z,0
2016-12-12T22:05:11.992Z,0
2016-12-12T22:06:37.504Z,0
2016-12-12T22:07:30.470Z,0
2016-12-12T22:08:55.912Z,0
2016-12-12T22:10:21.595Z,0
2016-12-12T22:12:08.384Z,0
2016-12-12T22:13:02.147Z,0
2016-12-12T22:13:55.708Z,0
2016-12-12T22:14:49.259Z,0
2016-12-12T22:15:42.552Z,0
2016-12-12T22:16:36.029Z,0
2016-12-12T22:17:30.075Z,0
2016-12-12T22:51:48.748Z,0
2016-12-12T23:49:50.400Z,0
2016-12-12T23:50:44.046Z,0
2016-12-12T23:51:37.621Z,0
2016-12-12T23:52:31.104Z,0
2016-12-12T23:53:24.759Z,0
2016-12-12T23:54:18.029Z,0
2016-12-12T23:55:11.739Z,0
2016-12-12T23:56:04.970Z,0
2016-12-12T23:56:58.604Z,0
2016-12-12T23:57:52.137Z,0
2016-12-12T23:58:45.625Z,0
